sensor_id;sensor_type;location;lat;lon;timestamp;P1;durP1;ratioP1;P2;durP2;ratioP2
7029;SDS011;3556;53.500;10.176;2022-08-19T00:01:24;14.83;;;11.53;;
7029;SDS011;3556;53.500;10.176;2022-08-19T00:03:52;13.90;;;12.50;;
7029;SDS011;3556;53.500;10.176;2022-08-19T00:06:18;15.07;;;13.37;;
7029;SDS011;3556;53.500;10.176;2022-08-19T00:08:44;17.83;;;14.90;;
7029;SDS011;3556;53.500;10.176;2022-08-19T00:11:11;16.33;;;14.70;;
7029;SDS011;3556;53.500;10.176;2022-08-19T00:13:37;17.57;;;13.20;;
7029;SDS011;3556;53.500;10.176;2022-08-19T00:16:03;21.10;;;15.27;;
7029;SDS011;3556;53.500;10.176;2022-08-19T00:18:30;16.10;;;14.20;;
7029;SDS011;3556;53.500;10.176;2022-08-19T00:20:57;19.40;;;16.10;;
7029;SDS011;3556;53.500;10.176;2022-08-19T00:23:24;16.87;;;14.80;;
7029;SDS011;3556;53.500;10.176;2022-08-19T00:26:01;20.47;;;14.20;;
7029;SDS011;3556;53.500;10.176;2022-08-19T00:28:28;18.97;;;15.30;;
7029;SDS011;3556;53.500;10.176;2022-08-19T00:30:53;17.00;;;15.00;;
7029;SDS011;3556;53.500;10.176;2022-08-19T00:33:20;25.50;;;15.20;;
7029;SDS011;3556;53.500;10.176;2022-08-19T00:35:46;16.73;;;14.17;;
7029;SDS011;3556;53.500;10.176;2022-08-19T00:38:12;20.10;;;15.13;;
7029;SDS011;3556;53.500;10.176;2022-08-19T00:40:37;17.83;;;14.70;;
7029;SDS011;3556;53.500;10.176;2022-08-19T00:43:07;21.47;;;19.10;;
7029;SDS011;3556;53.500;10.176;2022-08-19T00:45:38;19.77;;;17.10;;
7029;SDS011;3556;53.500;10.176;2022-08-19T00:48:06;23.67;;;18.50;;
7029;SDS011;3556;53.500;10.176;2022-08-19T00:50:32;22.67;;;18.30;;
7029;SDS011;3556;53.500;10.176;2022-08-19T00:52:59;25.67;;;19.13;;
7029;SDS011;3556;53.500;10.176;2022-08-19T00:55:29;22.00;;;18.23;;
7029;SDS011;3556;53.500;10.176;2022-08-19T00:58:00;21.67;;;18.67;;
7029;SDS011;3556;53.500;10.176;2022-08-19T01:00:30;22.40;;;18.40;;
7029;SDS011;3556;53.500;10.176;2022-08-19T01:02:56;21.47;;;18.73;;
7029;SDS011;3556;53.500;10.176;2022-08-19T01:05:23;23.27;;;18.50;;
7029;SDS011;3556;53.500;10.176;2022-08-19T01:07:52;28.40;;;20.17;;
7029;SDS011;3556;53.500;10.176;2022-08-19T01:10:21;30.90;;;21.87;;
7029;SDS011;3556;53.500;10.176;2022-08-19T01:12:50;27.13;;;19.60;;
7029;SDS011;3556;53.500;10.176;2022-08-19T01:15:18;37.43;;;24.67;;
7029;SDS011;3556;53.500;10.176;2022-08-19T01:17:51;40.33;;;24.23;;
7029;SDS011;3556;53.500;10.176;2022-08-19T01:20:19;34.47;;;23.30;;
7029;SDS011;3556;53.500;10.176;2022-08-19T01:22:51;36.97;;;24.20;;
7029;SDS011;3556;53.500;10.176;2022-08-19T01:25:22;40.17;;;26.00;;
7029;SDS011;3556;53.500;10.176;2022-08-19T01:28:20;40.57;;;25.80;;
7029;SDS011;3556;53.500;10.176;2022-08-19T01:30:50;34.97;;;24.90;;
7029;SDS011;3556;53.500;10.176;2022-08-19T01:33:17;33.93;;;24.73;;
7029;SDS011;3556;53.500;10.176;2022-08-19T01:35:44;34.43;;;23.13;;
7029;SDS011;3556;53.500;10.176;2022-08-19T01:38:18;35.00;;;23.57;;
7029;SDS011;3556;53.500;10.176;2022-08-19T01:40:46;40.80;;;25.50;;
7029;SDS011;3556;53.500;10.176;2022-08-19T01:43:12;39.23;;;25.80;;
7029;SDS011;3556;53.500;10.176;2022-08-19T01:45:38;39.60;;;26.57;;
7029;SDS011;3556;53.500;10.176;2022-08-19T01:48:05;34.73;;;24.20;;
7029;SDS011;3556;53.500;10.176;2022-08-19T01:50:34;47.80;;;28.13;;
7029;SDS011;3556;53.500;10.176;2022-08-19T01:53:01;41.00;;;26.53;;
7029;SDS011;3556;53.500;10.176;2022-08-19T01:55:28;39.33;;;25.00;;
7029;SDS011;3556;53.500;10.176;2022-08-19T01:57:55;44.17;;;25.70;;
7029;SDS011;3556;53.500;10.176;2022-08-19T02:00:26;40.70;;;26.93;;
7029;SDS011;3556;53.500;10.176;2022-08-19T02:02:54;40.10;;;25.70;;
7029;SDS011;3556;53.500;10.176;2022-08-19T02:05:20;40.50;;;27.33;;
7029;SDS011;3556;53.500;10.176;2022-08-19T02:07:46;35.80;;;26.27;;
7029;SDS011;3556;53.500;10.176;2022-08-19T02:10:14;47.77;;;26.87;;
7029;SDS011;3556;53.500;10.176;2022-08-19T02:12:42;40.33;;;26.97;;
7029;SDS011;3556;53.500;10.176;2022-08-19T02:15:08;34.90;;;24.87;;
7029;SDS011;3556;53.500;10.176;2022-08-19T02:17:35;40.83;;;26.80;;
7029;SDS011;3556;53.500;10.176;2022-08-19T02:20:01;36.60;;;25.27;;
7029;SDS011;3556;53.500;10.176;2022-08-19T02:22:27;46.57;;;27.47;;
7029;SDS011;3556;53.500;10.176;2022-08-19T02:24:53;39.07;;;26.70;;
7029;SDS011;3556;53.500;10.176;2022-08-19T02:27:20;39.80;;;24.70;;
7029;SDS011;3556;53.500;10.176;2022-08-19T02:29:47;35.10;;;23.93;;
7029;SDS011;3556;53.500;10.176;2022-08-19T02:32:15;32.20;;;22.70;;
7029;SDS011;3556;53.500;10.176;2022-08-19T02:34:41;36.00;;;22.10;;
7029;SDS011;3556;53.500;10.176;2022-08-19T02:37:07;37.77;;;21.00;;
7029;SDS011;3556;53.500;10.176;2022-08-19T02:39:56;33.93;;;20.77;;
7029;SDS011;3556;53.500;10.176;2022-08-19T02:42:21;39.03;;;23.43;;
7029;SDS011;3556;53.500;10.176;2022-08-19T02:44:47;34.27;;;22.47;;
7029;SDS011;3556;53.500;10.176;2022-08-19T02:47:13;36.93;;;21.80;;
7029;SDS011;3556;53.500;10.176;2022-08-19T02:49:39;32.20;;;22.47;;
7029;SDS011;3556;53.500;10.176;2022-08-19T02:52:05;35.00;;;23.13;;
7029;SDS011;3556;53.500;10.176;2022-08-19T02:54:31;29.47;;;21.97;;
7029;SDS011;3556;53.500;10.176;2022-08-19T02:56:57;39.67;;;21.77;;
7029;SDS011;3556;53.500;10.176;2022-08-19T02:59:23;36.83;;;22.17;;
7029;SDS011;3556;53.500;10.176;2022-08-19T03:01:51;32.20;;;22.30;;
7029;SDS011;3556;53.500;10.176;2022-08-19T03:04:16;32.37;;;22.47;;
7029;SDS011;3556;53.500;10.176;2022-08-19T03:06:43;34.77;;;21.20;;
7029;SDS011;3556;53.500;10.176;2022-08-19T03:09:10;34.10;;;23.80;;
7029;SDS011;3556;53.500;10.176;2022-08-19T03:11:37;37.77;;;21.90;;
7029;SDS011;3556;53.500;10.176;2022-08-19T03:14:04;34.53;;;21.67;;
7029;SDS011;3556;53.500;10.176;2022-08-19T03:16:31;32.30;;;21.50;;
7029;SDS011;3556;53.500;10.176;2022-08-19T03:19:00;35.20;;;21.40;;
7029;SDS011;3556;53.500;10.176;2022-08-19T03:21:28;40.07;;;22.70;;
7029;SDS011;3556;53.500;10.176;2022-08-19T03:23:56;31.60;;;20.83;;
7029;SDS011;3556;53.500;10.176;2022-08-19T03:26:23;30.77;;;21.43;;
7029;SDS011;3556;53.500;10.176;2022-08-19T03:28:49;32.47;;;22.30;;
7029;SDS011;3556;53.500;10.176;2022-08-19T03:31:16;35.50;;;22.30;;
7029;SDS011;3556;53.500;10.176;2022-08-19T03:33:44;29.53;;;19.70;;
7029;SDS011;3556;53.500;10.176;2022-08-19T03:36:11;31.77;;;20.90;;
7029;SDS011;3556;53.500;10.176;2022-08-19T03:38:40;32.53;;;20.10;;
7029;SDS011;3556;53.500;10.176;2022-08-19T03:41:13;32.03;;;19.70;;
7029;SDS011;3556;53.500;10.176;2022-08-19T03:43:41;32.30;;;22.23;;
7029;SDS011;3556;53.500;10.176;2022-08-19T03:46:11;30.40;;;20.43;;
7029;SDS011;3556;53.500;10.176;2022-08-19T03:48:45;27.37;;;19.53;;
7029;SDS011;3556;53.500;10.176;2022-08-19T03:51:18;31.50;;;20.30;;
7029;SDS011;3556;53.500;10.176;2022-08-19T03:53:52;32.00;;;20.83;;
7029;SDS011;3556;53.500;10.176;2022-08-19T03:56:19;29.00;;;19.80;;
7029;SDS011;3556;53.500;10.176;2022-08-19T03:58:44;28.70;;;19.23;;
7029;SDS011;3556;53.500;10.176;2022-08-19T04:01:15;37.17;;;20.80;;
7029;SDS011;3556;53.500;10.176;2022-08-19T04:03:43;31.87;;;20.90;;
7029;SDS011;3556;53.500;10.176;2022-08-19T04:06:13;44.57;;;22.30;;
7029;SDS011;3556;53.500;10.176;2022-08-19T04:08:46;38.60;;;22.53;;
7029;SDS011;3556;53.500;10.176;2022-08-19T04:11:14;45.50;;;23.50;;
7029;SDS011;3556;53.500;10.176;2022-08-19T04:13:42;48.80;;;24.60;;
7029;SDS011;3556;53.500;10.176;2022-08-19T04:16:09;55.37;;;25.13;;
7029;SDS011;3556;53.500;10.176;2022-08-19T04:18:36;52.10;;;25.37;;
7029;SDS011;3556;53.500;10.176;2022-08-19T04:21:03;52.40;;;24.80;;
7029;SDS011;3556;53.500;10.176;2022-08-19T04:23:30;49.80;;;24.77;;
7029;SDS011;3556;53.500;10.176;2022-08-19T04:25:56;50.10;;;25.27;;
7029;SDS011;3556;53.500;10.176;2022-08-19T04:28:22;54.23;;;24.93;;
7029;SDS011;3556;53.500;10.176;2022-08-19T04:30:50;51.60;;;23.73;;
7029;SDS011;3556;53.500;10.176;2022-08-19T04:33:17;43.10;;;22.37;;
7029;SDS011;3556;53.500;10.176;2022-08-19T04:35:46;46.93;;;24.80;;
7029;SDS011;3556;53.500;10.176;2022-08-19T04:38:13;52.63;;;25.33;;
7029;SDS011;3556;53.500;10.176;2022-08-19T04:40:45;42.83;;;22.40;;
7029;SDS011;3556;53.500;10.176;2022-08-19T04:43:31;47.00;;;23.70;;
7029;SDS011;3556;53.500;10.176;2022-08-19T04:46:04;55.97;;;23.40;;
7029;SDS011;3556;53.500;10.176;2022-08-19T04:48:35;36.47;;;21.13;;
7029;SDS011;3556;53.500;10.176;2022-08-19T04:51:05;46.43;;;22.50;;
7029;SDS011;3556;53.500;10.176;2022-08-19T04:53:33;43.47;;;22.40;;
7029;SDS011;3556;53.500;10.176;2022-08-19T04:56:03;60.13;;;24.60;;
7029;SDS011;3556;53.500;10.176;2022-08-19T04:58:32;39.97;;;23.23;;
7029;SDS011;3556;53.500;10.176;2022-08-19T05:00:58;45.10;;;22.90;;
7029;SDS011;3556;53.500;10.176;2022-08-19T05:03:25;47.87;;;23.83;;
7029;SDS011;3556;53.500;10.176;2022-08-19T05:05:51;46.10;;;23.13;;
7029;SDS011;3556;53.500;10.176;2022-08-19T05:08:18;38.80;;;22.77;;
7029;SDS011;3556;53.500;10.176;2022-08-19T05:10:49;41.03;;;20.83;;
7029;SDS011;3556;53.500;10.176;2022-08-19T05:13:16;50.27;;;25.30;;
7029;SDS011;3556;53.500;10.176;2022-08-19T05:15:44;45.60;;;24.23;;
7029;SDS011;3556;53.500;10.176;2022-08-19T05:18:18;50.47;;;24.97;;
7029;SDS011;3556;53.500;10.176;2022-08-19T05:21:09;44.53;;;23.87;;
7029;SDS011;3556;53.500;10.176;2022-08-19T05:23:56;45.27;;;22.40;;
7029;SDS011;3556;53.500;10.176;2022-08-19T05:26:22;40.37;;;23.00;;
7029;SDS011;3556;53.500;10.176;2022-08-19T05:28:49;45.87;;;25.80;;
7029;SDS011;3556;53.500;10.176;2022-08-19T05:31:15;44.07;;;24.70;;
7029;SDS011;3556;53.500;10.176;2022-08-19T05:33:40;35.17;;;21.87;;
7029;SDS011;3556;53.500;10.176;2022-08-19T05:36:06;43.63;;;25.60;;
7029;SDS011;3556;53.500;10.176;2022-08-19T05:38:32;51.20;;;26.50;;
7029;SDS011;3556;53.500;10.176;2022-08-19T05:41:08;53.20;;;28.23;;
7029;SDS011;3556;53.500;10.176;2022-08-19T05:43:35;49.53;;;25.23;;
7029;SDS011;3556;53.500;10.176;2022-08-19T05:46:01;51.27;;;28.37;;
7029;SDS011;3556;53.500;10.176;2022-08-19T05:48:26;60.33;;;30.97;;
7029;SDS011;3556;53.500;10.176;2022-08-19T05:50:53;68.30;;;34.20;;
7029;SDS011;3556;53.500;10.176;2022-08-19T05:53:18;67.33;;;33.03;;
7029;SDS011;3556;53.500;10.176;2022-08-19T05:55:44;46.43;;;26.97;;
7029;SDS011;3556;53.500;10.176;2022-08-19T05:58:10;69.83;;;33.73;;
7029;SDS011;3556;53.500;10.176;2022-08-19T06:00:36;60.27;;;31.47;;
7029;SDS011;3556;53.500;10.176;2022-08-19T06:03:03;58.17;;;30.10;;
7029;SDS011;3556;53.500;10.176;2022-08-19T06:05:29;60.13;;;32.60;;
7029;SDS011;3556;53.500;10.176;2022-08-19T06:07:56;59.10;;;31.40;;
7029;SDS011;3556;53.500;10.176;2022-08-19T06:10:23;55.70;;;29.50;;
7029;SDS011;3556;53.500;10.176;2022-08-19T06:12:49;60.77;;;30.90;;
7029;SDS011;3556;53.500;10.176;2022-08-19T06:15:15;51.60;;;27.50;;
7029;SDS011;3556;53.500;10.176;2022-08-19T06:17:41;66.90;;;34.97;;
7029;SDS011;3556;53.500;10.176;2022-08-19T06:20:09;54.60;;;29.57;;
7029;SDS011;3556;53.500;10.176;2022-08-19T06:22:42;62.57;;;33.33;;
7029;SDS011;3556;53.500;10.176;2022-08-19T06:25:09;68.87;;;33.23;;
7029;SDS011;3556;53.500;10.176;2022-08-19T06:27:36;64.77;;;33.70;;
7029;SDS011;3556;53.500;10.176;2022-08-19T06:30:03;66.60;;;31.57;;
7029;SDS011;3556;53.500;10.176;2022-08-19T06:32:29;60.90;;;31.00;;
7029;SDS011;3556;53.500;10.176;2022-08-19T06:34:56;59.43;;;32.00;;
7029;SDS011;3556;53.500;10.176;2022-08-19T06:37:21;67.30;;;33.20;;
7029;SDS011;3556;53.500;10.176;2022-08-19T06:39:47;68.77;;;33.27;;
7029;SDS011;3556;53.500;10.176;2022-08-19T06:42:14;63.33;;;34.67;;
7029;SDS011;3556;53.500;10.176;2022-08-19T06:44:43;60.60;;;32.27;;
7029;SDS011;3556;53.500;10.176;2022-08-19T06:47:13;56.63;;;32.00;;
7029;SDS011;3556;53.500;10.176;2022-08-19T06:49:40;65.00;;;32.63;;
7029;SDS011;3556;53.500;10.176;2022-08-19T06:52:07;66.33;;;34.30;;
7029;SDS011;3556;53.500;10.176;2022-08-19T06:54:33;69.50;;;32.17;;
7029;SDS011;3556;53.500;10.176;2022-08-19T06:56:59;76.90;;;34.47;;
7029;SDS011;3556;53.500;10.176;2022-08-19T06:59:29;60.13;;;28.83;;
7029;SDS011;3556;53.500;10.176;2022-08-19T07:01:57;56.57;;;30.40;;
7029;SDS011;3556;53.500;10.176;2022-08-19T07:04:25;58.13;;;29.40;;
7029;SDS011;3556;53.500;10.176;2022-08-19T07:07:13;54.83;;;30.50;;
7029;SDS011;3556;53.500;10.176;2022-08-19T07:09:42;59.70;;;29.10;;
7029;SDS011;3556;53.500;10.176;2022-08-19T07:12:10;57.33;;;30.40;;
7029;SDS011;3556;53.500;10.176;2022-08-19T07:14:38;61.43;;;30.53;;
7029;SDS011;3556;53.500;10.176;2022-08-19T07:17:05;56.03;;;30.00;;
7029;SDS011;3556;53.500;10.176;2022-08-19T07:19:34;55.63;;;29.50;;
7029;SDS011;3556;53.500;10.176;2022-08-19T07:22:01;61.97;;;30.73;;
7029;SDS011;3556;53.500;10.176;2022-08-19T07:24:28;48.27;;;27.57;;
7029;SDS011;3556;53.500;10.176;2022-08-19T07:26:55;52.60;;;26.37;;
7029;SDS011;3556;53.500;10.176;2022-08-19T07:29:25;56.67;;;28.27;;
7029;SDS011;3556;53.500;10.176;2022-08-19T07:31:52;57.63;;;29.43;;
7029;SDS011;3556;53.500;10.176;2022-08-19T07:34:21;48.43;;;27.10;;
7029;SDS011;3556;53.500;10.176;2022-08-19T07:36:48;45.43;;;26.93;;
7029;SDS011;3556;53.500;10.176;2022-08-19T07:39:15;62.97;;;28.07;;
7029;SDS011;3556;53.500;10.176;2022-08-19T07:41:43;48.97;;;27.63;;
7029;SDS011;3556;53.500;10.176;2022-08-19T07:44:10;49.77;;;28.20;;
7029;SDS011;3556;53.500;10.176;2022-08-19T07:46:38;47.30;;;27.80;;
7029;SDS011;3556;53.500;10.176;2022-08-19T07:49:05;45.17;;;27.20;;
7029;SDS011;3556;53.500;10.176;2022-08-19T07:51:32;62.17;;;31.77;;
7029;SDS011;3556;53.500;10.176;2022-08-19T07:53:58;59.83;;;31.47;;
7029;SDS011;3556;53.500;10.176;2022-08-19T07:56:25;62.00;;;32.00;;
7029;SDS011;3556;53.500;10.176;2022-08-19T07:58:51;69.77;;;32.10;;
7029;SDS011;3556;53.500;10.176;2022-08-19T08:01:22;57.40;;;32.00;;
7029;SDS011;3556;53.500;10.176;2022-08-19T08:03:50;54.70;;;30.13;;
7029;SDS011;3556;53.500;10.176;2022-08-19T08:06:36;63.53;;;31.57;;
7029;SDS011;3556;53.500;10.176;2022-08-19T08:09:23;60.37;;;30.87;;
7029;SDS011;3556;53.500;10.176;2022-08-19T08:11:53;64.33;;;30.57;;
7029;SDS011;3556;53.500;10.176;2022-08-19T08:14:32;63.47;;;32.53;;
7029;SDS011;3556;53.500;10.176;2022-08-19T08:17:00;62.33;;;31.40;;
7029;SDS011;3556;53.500;10.176;2022-08-19T08:19:27;63.03;;;28.90;;
7029;SDS011;3556;53.500;10.176;2022-08-19T08:21:54;50.43;;;27.00;;
7029;SDS011;3556;53.500;10.176;2022-08-19T08:24:21;50.73;;;28.90;;
7029;SDS011;3556;53.500;10.176;2022-08-19T08:26:47;41.87;;;24.60;;
7029;SDS011;3556;53.500;10.176;2022-08-19T08:29:13;40.73;;;25.37;;
7029;SDS011;3556;53.500;10.176;2022-08-19T08:31:41;57.87;;;27.53;;
7029;SDS011;3556;53.500;10.176;2022-08-19T08:34:08;47.80;;;27.30;;
7029;SDS011;3556;53.500;10.176;2022-08-19T08:36:42;48.30;;;27.47;;
7029;SDS011;3556;53.500;10.176;2022-08-19T08:39:11;39.00;;;23.47;;
7029;SDS011;3556;53.500;10.176;2022-08-19T08:47:19;43.20;;;26.60;;
7029;SDS011;3556;53.500;10.176;2022-08-19T08:49:49;38.43;;;23.30;;
7029;SDS011;3556;53.500;10.176;2022-08-19T08:52:25;37.10;;;23.43;;
7029;SDS011;3556;53.500;10.176;2022-08-19T08:54:54;47.07;;;23.23;;
7029;SDS011;3556;53.500;10.176;2022-08-19T08:57:24;38.33;;;21.53;;
7029;SDS011;3556;53.500;10.176;2022-08-19T08:59:52;33.17;;;22.33;;
7029;SDS011;3556;53.500;10.176;2022-08-19T09:02:21;31.10;;;20.80;;
7029;SDS011;3556;53.500;10.176;2022-08-19T09:04:46;38.23;;;22.60;;
7029;SDS011;3556;53.500;10.176;2022-08-19T09:09:55;38.07;;;22.40;;
7029;SDS011;3556;53.500;10.176;2022-08-19T09:12:34;36.30;;;21.40;;
7029;SDS011;3556;53.500;10.176;2022-08-19T09:15:07;40.80;;;23.87;;
7029;SDS011;3556;53.500;10.176;2022-08-19T09:17:36;32.23;;;19.80;;
7029;SDS011;3556;53.500;10.176;2022-08-19T09:22:41;54.70;;;23.00;;
7029;SDS011;3556;53.500;10.176;2022-08-19T09:25:11;34.70;;;21.60;;
7029;SDS011;3556;53.500;10.176;2022-08-19T09:27:40;42.17;;;22.80;;
7029;SDS011;3556;53.500;10.176;2022-08-19T09:30:07;37.23;;;21.77;;
7029;SDS011;3556;53.500;10.176;2022-08-19T09:32:35;36.30;;;21.20;;
7029;SDS011;3556;53.500;10.176;2022-08-19T09:35:00;36.03;;;20.73;;
7029;SDS011;3556;53.500;10.176;2022-08-19T09:37:26;44.03;;;21.53;;
7029;SDS011;3556;53.500;10.176;2022-08-19T09:39:52;37.47;;;21.50;;
7029;SDS011;3556;53.500;10.176;2022-08-19T09:42:18;38.37;;;23.00;;
7029;SDS011;3556;53.500;10.176;2022-08-19T09:44:44;49.27;;;24.63;;
7029;SDS011;3556;53.500;10.176;2022-08-19T09:47:11;39.93;;;22.87;;
7029;SDS011;3556;53.500;10.176;2022-08-19T09:49:38;39.93;;;22.30;;
7029;SDS011;3556;53.500;10.176;2022-08-19T09:52:05;35.13;;;21.40;;
7029;SDS011;3556;53.500;10.176;2022-08-19T09:54:33;38.60;;;20.50;;
7029;SDS011;3556;53.500;10.176;2022-08-19T09:56:58;44.27;;;22.67;;
7029;SDS011;3556;53.500;10.176;2022-08-19T09:59:28;35.97;;;22.23;;
7029;SDS011;3556;53.500;10.176;2022-08-19T10:01:54;41.67;;;21.60;;
7029;SDS011;3556;53.500;10.176;2022-08-19T10:04:20;30.53;;;20.03;;
7029;SDS011;3556;53.500;10.176;2022-08-19T10:06:46;35.67;;;20.63;;
7029;SDS011;3556;53.500;10.176;2022-08-19T10:09:14;35.43;;;22.40;;
7029;SDS011;3556;53.500;10.176;2022-08-19T10:11:42;40.93;;;21.10;;
7029;SDS011;3556;53.500;10.176;2022-08-19T10:14:14;38.83;;;23.13;;
7029;SDS011;3556;53.500;10.176;2022-08-19T10:16:41;45.33;;;21.37;;
7029;SDS011;3556;53.500;10.176;2022-08-19T10:19:07;31.40;;;20.37;;
7029;SDS011;3556;53.500;10.176;2022-08-19T10:21:34;46.87;;;24.23;;
7029;SDS011;3556;53.500;10.176;2022-08-19T10:24:01;38.00;;;21.97;;
7029;SDS011;3556;53.500;10.176;2022-08-19T10:26:35;38.70;;;22.63;;
7029;SDS011;3556;53.500;10.176;2022-08-19T10:29:02;43.53;;;23.77;;
7029;SDS011;3556;53.500;10.176;2022-08-19T10:31:31;36.00;;;21.87;;
7029;SDS011;3556;53.500;10.176;2022-08-19T10:33:57;55.73;;;21.93;;
7029;SDS011;3556;53.500;10.176;2022-08-19T10:36:25;47.53;;;23.03;;
7029;SDS011;3556;53.500;10.176;2022-08-19T10:38:54;43.97;;;23.90;;
7029;SDS011;3556;53.500;10.176;2022-08-19T10:41:25;38.13;;;22.50;;
7029;SDS011;3556;53.500;10.176;2022-08-19T10:43:53;39.03;;;22.33;;
7029;SDS011;3556;53.500;10.176;2022-08-19T10:46:22;33.67;;;21.30;;
7029;SDS011;3556;53.500;10.176;2022-08-19T10:48:49;41.40;;;20.50;;
7029;SDS011;3556;53.500;10.176;2022-08-19T10:51:15;39.57;;;22.10;;
7029;SDS011;3556;53.500;10.176;2022-08-19T10:54:00;38.30;;;21.50;;
7029;SDS011;3556;53.500;10.176;2022-08-19T10:56:27;40.47;;;22.03;;
7029;SDS011;3556;53.500;10.176;2022-08-19T10:59:11;39.17;;;21.97;;
7029;SDS011;3556;53.500;10.176;2022-08-19T11:01:39;43.07;;;21.93;;
7029;SDS011;3556;53.500;10.176;2022-08-19T11:04:06;37.70;;;23.17;;
7029;SDS011;3556;53.500;10.176;2022-08-19T11:06:35;36.50;;;21.40;;
7029;SDS011;3556;53.500;10.176;2022-08-19T11:09:02;38.70;;;21.33;;
7029;SDS011;3556;53.500;10.176;2022-08-19T11:11:29;31.77;;;20.00;;
7029;SDS011;3556;53.500;10.176;2022-08-19T11:13:55;36.13;;;21.30;;
7029;SDS011;3556;53.500;10.176;2022-08-19T11:16:25;43.87;;;22.60;;
7029;SDS011;3556;53.500;10.176;2022-08-19T11:18:56;38.17;;;22.03;;
7029;SDS011;3556;53.500;10.176;2022-08-19T11:21:24;29.17;;;19.80;;
7029;SDS011;3556;53.500;10.176;2022-08-19T11:23:53;34.33;;;21.20;;
7029;SDS011;3556;53.500;10.176;2022-08-19T11:26:21;33.23;;;20.77;;
7029;SDS011;3556;53.500;10.176;2022-08-19T11:28:48;36.10;;;20.83;;
7029;SDS011;3556;53.500;10.176;2022-08-19T11:31:18;30.00;;;19.90;;
7029;SDS011;3556;53.500;10.176;2022-08-19T11:33:46;36.33;;;21.50;;
7029;SDS011;3556;53.500;10.176;2022-08-19T11:36:15;30.83;;;20.30;;
7029;SDS011;3556;53.500;10.176;2022-08-19T11:38:41;35.47;;;20.27;;
7029;SDS011;3556;53.500;10.176;2022-08-19T11:41:07;40.67;;;22.03;;
7029;SDS011;3556;53.500;10.176;2022-08-19T11:43:33;34.90;;;22.23;;
7029;SDS011;3556;53.500;10.176;2022-08-19T11:45:59;44.83;;;23.93;;
7029;SDS011;3556;53.500;10.176;2022-08-19T11:48:28;38.70;;;23.27;;
7029;SDS011;3556;53.500;10.176;2022-08-19T11:50:54;41.13;;;23.83;;
7029;SDS011;3556;53.500;10.176;2022-08-19T11:53:22;48.27;;;24.20;;
7029;SDS011;3556;53.500;10.176;2022-08-19T11:55:48;39.90;;;23.63;;
7029;SDS011;3556;53.500;10.176;2022-08-19T11:58:15;35.00;;;21.60;;
7029;SDS011;3556;53.500;10.176;2022-08-19T12:00:43;39.43;;;22.40;;
7029;SDS011;3556;53.500;10.176;2022-08-19T12:03:10;37.17;;;20.47;;
7029;SDS011;3556;53.500;10.176;2022-08-19T12:05:37;30.47;;;21.53;;
7029;SDS011;3556;53.500;10.176;2022-08-19T12:08:04;32.83;;;23.13;;
7029;SDS011;3556;53.500;10.176;2022-08-19T12:10:30;43.10;;;23.07;;
7029;SDS011;3556;53.500;10.176;2022-08-19T12:12:56;34.60;;;22.60;;
7029;SDS011;3556;53.500;10.176;2022-08-19T12:15:21;39.97;;;24.60;;
7029;SDS011;3556;53.500;10.176;2022-08-19T12:17:47;38.10;;;23.47;;
7029;SDS011;3556;53.500;10.176;2022-08-19T12:20:13;27.83;;;21.50;;
7029;SDS011;3556;53.500;10.176;2022-08-19T12:22:41;29.80;;;19.23;;
7029;SDS011;3556;53.500;10.176;2022-08-19T12:25:07;25.67;;;18.80;;
7029;SDS011;3556;53.500;10.176;2022-08-19T12:27:35;38.30;;;22.20;;
7029;SDS011;3556;53.500;10.176;2022-08-19T12:30:01;36.50;;;22.10;;
7029;SDS011;3556;53.500;10.176;2022-08-19T12:32:28;28.97;;;19.77;;
7029;SDS011;3556;53.500;10.176;2022-08-19T12:34:54;24.97;;;17.90;;
7029;SDS011;3556;53.500;10.176;2022-08-19T12:37:20;26.70;;;18.73;;
7029;SDS011;3556;53.500;10.176;2022-08-19T12:39:46;26.03;;;18.37;;
7029;SDS011;3556;53.500;10.176;2022-08-19T12:42:12;21.43;;;16.40;;
7029;SDS011;3556;53.500;10.176;2022-08-19T12:44:40;27.63;;;20.07;;
7029;SDS011;3556;53.500;10.176;2022-08-19T12:47:07;27.67;;;18.33;;
7029;SDS011;3556;53.500;10.176;2022-08-19T12:49:34;22.93;;;17.10;;
7029;SDS011;3556;53.500;10.176;2022-08-19T12:52:02;31.70;;;19.10;;
7029;SDS011;3556;53.500;10.176;2022-08-19T12:54:28;20.50;;;17.33;;
7029;SDS011;3556;53.500;10.176;2022-08-19T12:56:56;21.40;;;17.70;;
7029;SDS011;3556;53.500;10.176;2022-08-19T12:59:24;24.30;;;18.27;;
7029;SDS011;3556;53.500;10.176;2022-08-19T13:01:50;17.87;;;15.97;;
7029;SDS011;3556;53.500;10.176;2022-08-19T13:04:15;26.47;;;18.10;;
7029;SDS011;3556;53.500;10.176;2022-08-19T13:06:41;22.90;;;17.97;;
7029;SDS011;3556;53.500;10.176;2022-08-19T13:09:07;23.00;;;17.70;;
7029;SDS011;3556;53.500;10.176;2022-08-19T13:11:34;26.30;;;18.70;;
7029;SDS011;3556;53.500;10.176;2022-08-19T13:14:01;20.27;;;16.97;;
7029;SDS011;3556;53.500;10.176;2022-08-19T13:16:27;22.43;;;16.20;;
7029;SDS011;3556;53.500;10.176;2022-08-19T13:18:54;24.43;;;16.27;;
7029;SDS011;3556;53.500;10.176;2022-08-19T13:21:21;17.47;;;15.47;;
7029;SDS011;3556;53.500;10.176;2022-08-19T13:23:49;19.53;;;16.80;;
7029;SDS011;3556;53.500;10.176;2022-08-19T13:26:16;19.30;;;16.37;;
7029;SDS011;3556;53.500;10.176;2022-08-19T13:28:42;16.90;;;15.10;;
7029;SDS011;3556;53.500;10.176;2022-08-19T13:31:29;15.13;;;13.53;;
7029;SDS011;3556;53.500;10.176;2022-08-19T13:34:16;18.03;;;16.20;;
7029;SDS011;3556;53.500;10.176;2022-08-19T13:36:44;20.10;;;16.00;;
7029;SDS011;3556;53.500;10.176;2022-08-19T13:39:10;14.50;;;13.00;;
7029;SDS011;3556;53.500;10.176;2022-08-19T13:41:36;16.13;;;13.13;;
7029;SDS011;3556;53.500;10.176;2022-08-19T13:44:07;16.30;;;14.60;;
7029;SDS011;3556;53.500;10.176;2022-08-19T13:46:33;15.97;;;14.27;;
7029;SDS011;3556;53.500;10.176;2022-08-19T13:48:59;16.67;;;14.87;;
7029;SDS011;3556;53.500;10.176;2022-08-19T13:51:24;14.67;;;13.17;;
7029;SDS011;3556;53.500;10.176;2022-08-19T13:53:50;18.67;;;13.83;;
7029;SDS011;3556;53.500;10.176;2022-08-19T13:56:16;13.57;;;12.30;;
7029;SDS011;3556;53.500;10.176;2022-08-19T13:58:44;16.87;;;15.17;;
7029;SDS011;3556;53.500;10.176;2022-08-19T14:01:10;14.80;;;13.40;;
7029;SDS011;3556;53.500;10.176;2022-08-19T14:03:36;14.07;;;12.80;;
7029;SDS011;3556;53.500;10.176;2022-08-19T14:06:02;15.63;;;12.93;;
7029;SDS011;3556;53.500;10.176;2022-08-19T14:08:28;14.70;;;13.40;;
7029;SDS011;3556;53.500;10.176;2022-08-19T14:10:54;14.83;;;13.50;;
7029;SDS011;3556;53.500;10.176;2022-08-19T14:13:21;15.50;;;13.63;;
7029;SDS011;3556;53.500;10.176;2022-08-19T14:15:48;14.50;;;12.30;;
7029;SDS011;3556;53.500;10.176;2022-08-19T14:18:15;15.70;;;14.10;;
7029;SDS011;3556;53.500;10.176;2022-08-19T14:20:42;14.37;;;13.10;;
7029;SDS011;3556;53.500;10.176;2022-08-19T14:23:08;15.87;;;14.27;;
7029;SDS011;3556;53.500;10.176;2022-08-19T14:25:34;16.43;;;14.83;;
7029;SDS011;3556;53.500;10.176;2022-08-19T14:28:00;14.60;;;13.40;;
7029;SDS011;3556;53.500;10.176;2022-08-19T14:30:28;14.40;;;13.10;;
7029;SDS011;3556;53.500;10.176;2022-08-19T14:32:59;15.47;;;14.00;;
7029;SDS011;3556;53.500;10.176;2022-08-19T14:35:30;12.87;;;11.77;;
7029;SDS011;3556;53.500;10.176;2022-08-19T14:37:59;12.73;;;11.43;;
7029;SDS011;3556;53.500;10.176;2022-08-19T14:40:27;16.23;;;12.87;;
7029;SDS011;3556;53.500;10.176;2022-08-19T14:42:59;12.47;;;11.40;;
7029;SDS011;3556;53.500;10.176;2022-08-19T14:45:29;13.23;;;12.13;;
7029;SDS011;3556;53.500;10.176;2022-08-19T14:47:56;13.07;;;11.77;;
7029;SDS011;3556;53.500;10.176;2022-08-19T14:50:24;12.20;;;11.00;;